Nearby METAR Reports

 

KCMA - Camarillo, California, USA
Distance from station: WSW 4mi, 7km
Updated: Thu, 09-Jul-2020 1:55pm PDT
Clear
Clear
 Wind from W
Wind: W 10 mph , 17 km/h
Temperature: 73°F , 23°C
Dew Point: 57°F , 14°C
Humidity: 57%
Barometer: 29.89 inHg , 1012.2 hPa
Clouds: Clear
Visibility: 8 miles , 13 km
2020/07/09 20:55 KCMA 092055Z 28009KT 8SM CLR 23/14 A2989 RMK AO2 SLP131 T02280144 58003
KNTD - Point Mugu Nas, California, USA
Distance from station: SSW 9mi, 15km
Updated: Thu, 09-Jul-2020 1:52pm PDT
Haze, Partly cloudy
Haze, Partly cloudy
 Wind from WSW
Wind: WSW 10 mph , 17 km/h
Temperature: 72°F , 22°C
Dew Point: 59°F , 15°C
Humidity: 65%
Barometer: 29.91 inHg , 1012.9 hPa
Summary: Haze
Clouds: Partly cloudy
Visibility: 6 miles , 10 km
Cloud details: Partly cloudy 1200 ft
2020/07/09 20:52 KNTD 092052Z 25009KT 6SM HZ SCT012 22/15 A2991 RMK AO2 SLP129 T02170150 58001 $
 
KOXR - Oxnard, California, USA
Distance from station: WSW 10mi, 16km
Updated: Thu, 09-Jul-2020 1:51pm PDT
Partly cloudy
Partly cloudy
 Wind from W
Wind: W 13 mph , 20 km/h
Temperature: 70°F , 21°C
Dew Point: 59°F , 15°C
Humidity: 69%
Barometer: 29.91 inHg , 1012.9 hPa
Clouds: Partly cloudy
Visibility: 10 miles , 16 km
Cloud details: Partly cloudy 1100 ft
2020/07/09 20:51 KOXR 092051Z 26011KT 10SM SCT011 21/15 A2991 RMK AO2 SLP127 T02060150 58001
KVNY - Van Nuys, California, USA
Distance from station: E 31mi, 50km
Updated: Thu, 09-Jul-2020 1:51pm PDT
Clear
Clear
 Wind from SSE
Wind: SSE 10 mph , 17 km/h
Temperature: 91°F , 33°C
Dew Point: 48°F , 9°C
Humidity: 23%
Barometer: 29.87 inHg , 1011.5 hPa
Clouds: Clear
Visibility: 10 miles , 16 km
2020/07/09 20:51 KVNY 092051Z 16009KT 10SM CLR 33/09 A2987 RMK AO2 SLP103 T03280089 58010
 
KWHP - La / Whiteman, California, USA
Distance from station: E 35mi, 56km
Updated: Thu, 09-Jul-2020 1:55pm PDT
Clear
Clear
 Wind from ESE
Wind: ESE 8 mph , 13 km/h
Temperature: 86°F , 30°C
Dew Point: 54°F , 12°C
Humidity: 33%
Barometer: 29.92 inHg , 1013.2 hPa
Clouds: Clear
Visibility: 10 miles , 16 km
2020/07/09 20:55 KWHP 092055Z 12007KT 10SM SKC 30/12 A2992
KSMO - Santa Monica, California, USA
Distance from station: ESE 36mi, 58km
Updated: Thu, 09-Jul-2020 1:51pm PDT
Clear
Clear
 Wind from WSW
Wind: WSW 9 mph , 15 km/h
Temperature: 72°F , 22°C
Dew Point: 61°F , 16°C
Humidity: 69%
Barometer: 29.90 inHg , 1012.5 hPa
Clouds: Clear
Visibility: 8 miles , 13 km
2020/07/09 20:51 KSMO 092051Z 25008KT 8SM CLR 22/16 A2990 RMK AO2 SLP122 T02220161 58003
 
KBUR - Burbank, California, USA
Distance from station: E 38mi, 61km
Updated: Thu, 09-Jul-2020 1:53pm PDT
Clear
Clear
 Wind from S
Wind: S 9 mph , 15 km/h
Temperature: 86°F , 30°C
Dew Point: 57°F , 14°C
Humidity: 38%
Barometer: 29.87 inHg , 1011.5 hPa
Clouds: Clear
Visibility: 10 miles , 16 km
2020/07/09 20:53 KBUR 092053Z 17008KT 10SM CLR 30/14 A2987 RMK AO2 SLP101 T03000139 58008
KSDB - Sandberg, California, USA
Distance from station: NNE 40mi, 64km
Updated: Thu, 09-Jul-2020 1:53pm PDT
Clear
Clear
 Wind from calm
Wind: Calm
Temperature: 86°F , 30°C
Dew Point: 43°F , 6°C
Humidity: 22%
Barometer: 30.08 inHg , 1018.6 hPa
Clouds: Clear
Visibility: 10 miles , 16 km
2020/07/09 20:53 KSDB 092053Z AUTO 00000KT 10SM CLR 30/06 A3008 RMK AO2 SLP122 T03000056 50000
 
KLAX - Los Angeles, California, USA
Distance from station: ESE 42mi, 68km
Updated: Thu, 09-Jul-2020 1:53pm PDT
Clear
Clear
 Wind from WSW
Wind: WSW 13 mph , 20 km/h
Temperature: 73°F , 23°C
Dew Point: 61°F , 16°C
Humidity: 65%
Barometer: 29.90 inHg , 1012.5 hPa
Clouds: Clear
Visibility: 9 miles , 14 km
2020/07/09 20:53 KLAX 092053Z 24011KT 9SM CLR 23/16 A2990 RMK AO2 SLP122 T02330156 58002
KCQT - Los Angeles, California, USA
Distance from station: ESE 45mi, 73km
Updated: Thu, 09-Jul-2020 1:52pm PDT
Clear
Clear
 Wind from calm
Wind: Calm
Temperature: 81°F , 27°C
Heat Index: 82°F , 28°C
Dew Point: 61°F , 16°C
Humidity: 51%
Barometer: 29.88 inHg , 1011.9 hPa
Clouds: Clear
Visibility: 8 miles , 13 km
2020/07/09 20:52 KCQT 092052Z AUTO 00000KT 8SM CLR 27/16 A2988 RMK AO2 SLP114 T02670161 57002
 
KHHR - Hawthorne, California, USA
Distance from station: ESE 45mi, 73km
Updated: Thu, 09-Jul-2020 1:53pm PDT
Clear
Clear
 Wind from WSW
Wind: WSW 9 mph , 15 km/h
Temperature: 75°F , 24°C
Dew Point: 61°F , 16°C
Humidity: 61%
Barometer: 29.89 inHg , 1012.2 hPa
Clouds: Clear
Visibility: 10 miles , 16 km
2020/07/09 20:53 KHHR 092053Z 25008KT 10SM CLR 24/16 A2989 RMK AO2 SLP122 T02440156 58002
KSBA - Santa Barbara, California, USA
Distance from station: WNW 49mi, 79km
Updated: Thu, 09-Jul-2020 1:53pm PDT
Partly cloudy
Partly cloudy
 Wind from WSW
Wind: WSW 8 mph , 13 km/h
Temperature: 68°F , 20°C
Dew Point: 57°F , 14°C
Humidity: 69%
Barometer: 29.91 inHg , 1012.9 hPa
Clouds: Partly cloudy
Visibility: 10 miles , 16 km
Cloud details: Partly cloudy 600 ft
2020/07/09 20:53 KSBA 092053Z 25007KT 10SM SCT006 20/14 A2991 RMK AO2 SLP129 T02000144 58000 $